Airfield :
LOGIN :

Register | Disclaimer

   EN    FR    IT 

 










Legend :    VFR   Marginal VFR   IFR   Intensive IFR   Very Intensive IFR
Visi :
Ceiling :
>= 8 km
>= 3000ft
5 to 8 km
1000 to 3000 ft
1500m to 5 km
500 to 1000 ft
800 to 1500m
200 to 500 ft
< 800m
< 200 ft
Symbols :   Thunderstorms  Fog  Heavy snow  Heavy precipitations  Wind > 20 kt
SIGMETs :     Misc.  Thunderstorms  Icing  Turbulence  Mountain Waves  Volcanic Ashes







- Airport Elevation : 461 ft
- IATA code : WIE


ETOU - Wiesbaden Army

CURRENT METAR :
  • 171056Z AUTO 35004KT 9999 CLR 27/14 A2999 RMK AO2 SLP152 T02700144 $

EXPIRED METARs :
  • 170956Z AUTO 36011G16KT 9999 CLR 25/14 A3000 RMK AO2 SLP155 T02530144 $
  • 170856Z AUTO 02010KT 9999 CLR 25/15 A3000 RMK AO2 SLP155 T02460147 52014 $

TAF TAF ETOU
Valid from the 17 at 11:00 until the 18 at 17:00 UTC


171102Z 1711/1817 36009KT 9999 FEW050 SCT080 QNH2998INS
BECMG 1714/1715 35012KT 8000 -SHRA SCT030 BKN060 QNH2998INS
BECMG 1717/1718 34010G15KT 9999 NSW FEW035 SCT065 QNH3002INS
BECMG 1802/1803 34009KT 8000 -SHRA SCT025 BKN050 QNH3010INS
BECMG 1807/1808 VRB06KT 9999 NSW FEW035 SCT070 QNH3013INS TX29/1713Z TN16/1805Z
No reported NOTAMs for that airfield.



MET'MAP, your aeronautical weather chart ! - Copyright ORBIFLY December 2007 - Disclaimer

ORBIFLY MET'MAP TEAM :

Programming & Development : Alexandra Zaïnal
Concept & Development : Baudouin d'Aumeries
Co-Development & Prog : Marc-Olivier Méhu
Technical & hardware support : Manuel Goepfert

Contact : metmap@orbifly.com




SOURCES & CREDITS :

   NOAA